San Francisco, California
Traffic Map
Current Weather Conditions
San Francisco, California
Few Clouds
Few Clouds
61°
Feels Like: 61°
Wind Chill: 61° Ceiling: Unl
Heat Index: 61° Visibility: 10mi
Dew Point: 49° Wind: 3mph
Humidity: 64% Direction: 20° (NNE)
Pressure: 30.38in Gusts: 0mph
Raw Report DataKSFO 241956Z 02003KT 10SM FEW200 16/09 A3038 RMK AO2 SLP287 T01610094
Traffic Incident Summary
Active as of:
Severity:
Category:
InformationThere was an issue retrieving the traffic information for this location. Please try a different location or try again shortly.
Advertisements
Track Severe Weather on mobile